sensor_id;sensor_type;location;lat;lon;timestamp;pressure;altitude;pressure_sealevel;temperature;humidity
37972;BME280;23794;48.234;8.344;2023-11-19T00:02:11;94312.59;;;7.45;93.92
37972;BME280;23794;48.234;8.344;2023-11-19T00:04:38;94314.56;;;7.45;94.20
37972;BME280;23794;48.234;8.344;2023-11-19T00:07:08;94310.25;;;7.44;94.70
37972;BME280;23794;48.234;8.344;2023-11-19T00:09:36;94291.56;;;7.42;95.47
37972;BME280;23794;48.234;8.344;2023-11-19T00:12:04;94295.88;;;7.47;95.72
37972;BME280;23794;48.234;8.344;2023-11-19T00:14:34;94294.06;;;7.65;95.55
37972;BME280;23794;48.234;8.344;2023-11-19T00:17:03;94294.06;;;7.62;95.62
37972;BME280;23794;48.234;8.344;2023-11-19T00:19:30;94281.19;;;7.62;96.08
37972;BME280;23794;48.234;8.344;2023-11-19T00:21:57;94270.28;;;7.62;96.02
37972;BME280;23794;48.234;8.344;2023-11-19T00:24:29;94268.38;;;7.66;96.45
37972;BME280;23794;48.234;8.344;2023-11-19T00:26:57;94258.69;;;7.76;96.13
37972;BME280;23794;48.234;8.344;2023-11-19T00:29:24;94242.34;;;7.80;96.12
37972;BME280;23794;48.234;8.344;2023-11-19T00:31:53;94241.16;;;7.77;95.70
37972;BME280;23794;48.234;8.344;2023-11-19T00:34:20;94238.84;;;7.79;95.84
37972;BME280;23794;48.234;8.344;2023-11-19T00:36:49;94240.38;;;7.80;95.66
37972;BME280;23794;48.234;8.344;2023-11-19T00:39:16;94227.97;;;7.83;95.76
37972;BME280;23794;48.234;8.344;2023-11-19T00:41:42;94226.44;;;7.89;96.00
37972;BME280;23794;48.234;8.344;2023-11-19T00:44:09;94222.91;;;7.92;95.34
37972;BME280;23794;48.234;8.344;2023-11-19T00:46:36;94225.28;;;7.97;95.22
37972;BME280;23794;48.234;8.344;2023-11-19T00:49:03;94226.88;;;7.98;95.44
37972;BME280;23794;48.234;8.344;2023-11-19T00:51:31;94217.13;;;8.01;95.17
37972;BME280;23794;48.234;8.344;2023-11-19T00:54:01;94236.56;;;7.92;95.90
37972;BME280;23794;48.234;8.344;2023-11-19T00:56:28;94219.81;;;7.94;95.72
37972;BME280;23794;48.234;8.344;2023-11-19T00:58:55;94226.84;;;7.95;96.23
37972;BME280;23794;48.234;8.344;2023-11-19T01:01:22;94225.66;;;7.96;96.24
37972;BME280;23794;48.234;8.344;2023-11-19T01:03:49;94221.41;;;8.02;95.98
37972;BME280;23794;48.234;8.344;2023-11-19T01:06:29;94218.69;;;8.02;96.31
37972;BME280;23794;48.234;8.344;2023-11-19T01:08:56;94208.97;;;8.08;96.36
37972;BME280;23794;48.234;8.344;2023-11-19T01:11:24;94212.88;;;8.14;96.00
37972;BME280;23794;48.234;8.344;2023-11-19T01:13:51;94207.84;;;8.20;95.75
37972;BME280;23794;48.234;8.344;2023-11-19T01:16:19;94214.06;;;8.24;95.90
37972;BME280;23794;48.234;8.344;2023-11-19T01:18:47;94207.44;;;8.22;95.99
37972;BME280;23794;48.234;8.344;2023-11-19T01:21:15;94200.84;;;8.26;95.78
37972;BME280;23794;48.234;8.344;2023-11-19T01:23:42;94199.28;;;8.29;95.95
37972;BME280;23794;48.234;8.344;2023-11-19T01:26:12;94198.09;;;8.30;95.41
37972;BME280;23794;48.234;8.344;2023-11-19T01:28:40;94198.53;;;8.35;95.16
37972;BME280;23794;48.234;8.344;2023-11-19T01:31:18;94198.13;;;8.33;95.50
37972;BME280;23794;48.234;8.344;2023-11-19T01:33:45;94198.53;;;8.35;95.10
37972;BME280;23794;48.234;8.344;2023-11-19T01:36:13;94201.63;;;8.41;95.10
37972;BME280;23794;48.234;8.344;2023-11-19T01:38:41;94195.00;;;8.42;95.39
37972;BME280;23794;48.234;8.344;2023-11-19T01:41:08;94196.97;;;8.38;95.81
37972;BME280;23794;48.234;8.344;2023-11-19T01:43:36;94204.34;;;8.38;95.67
37972;BME280;23794;48.234;8.344;2023-11-19T01:46:05;94212.53;;;8.41;96.09
37972;BME280;23794;48.234;8.344;2023-11-19T01:48:34;94199.28;;;8.40;96.13
37972;BME280;23794;48.234;8.344;2023-11-19T01:51:06;94197.72;;;8.39;96.08
37972;BME280;23794;48.234;8.344;2023-11-19T01:53:35;94200.09;;;8.44;96.32
37972;BME280;23794;48.234;8.344;2023-11-19T01:56:04;94195.41;;;8.51;95.88
37972;BME280;23794;48.234;8.344;2023-11-19T01:58:31;94189.56;;;8.49;96.09
37972;BME280;23794;48.234;8.344;2023-11-19T02:00:58;94200.47;;;8.53;95.61
37972;BME280;23794;48.234;8.344;2023-11-19T02:03:25;94193.44;;;8.48;95.64
37972;BME280;23794;48.234;8.344;2023-11-19T02:05:53;94193.84;;;8.54;96.05
37972;BME280;23794;48.234;8.344;2023-11-19T02:08:20;94181.00;;;8.51;95.81
37972;BME280;23794;48.234;8.344;2023-11-19T02:10:47;94187.63;;;8.46;95.85
37972;BME280;23794;48.234;8.344;2023-11-19T02:13:14;94178.28;;;8.51;95.98
37972;BME280;23794;48.234;8.344;2023-11-19T02:15:41;94186.84;;;8.53;95.37
37972;BME280;23794;48.234;8.344;2023-11-19T02:18:21;94168.88;;;8.52;95.64
37972;BME280;23794;48.234;8.344;2023-11-19T02:20:50;94174.34;;;8.45;95.84
37972;BME280;23794;48.234;8.344;2023-11-19T02:23:18;94173.97;;;8.50;95.44
37972;BME280;23794;48.234;8.344;2023-11-19T02:25:51;94156.81;;;8.53;95.09
37972;BME280;23794;48.234;8.344;2023-11-19T02:28:20;94175.53;;;8.47;95.42
37972;BME280;23794;48.234;8.344;2023-11-19T02:30:47;94168.50;;;8.43;95.80
37972;BME280;23794;48.234;8.344;2023-11-19T02:33:14;94175.13;;;8.49;95.80
37972;BME280;23794;48.234;8.344;2023-11-19T02:35:41;94166.16;;;8.52;95.26
37972;BME280;23794;48.234;8.344;2023-11-19T02:38:08;94180.22;;;8.54;95.04
37972;BME280;23794;48.234;8.344;2023-11-19T02:40:35;94185.66;;;8.50;95.28
37972;BME280;23794;48.234;8.344;2023-11-19T02:43:02;94191.53;;;8.60;94.81
37972;BME280;23794;48.234;8.344;2023-11-19T02:45:31;94192.28;;;8.57;95.14
37972;BME280;23794;48.234;8.344;2023-11-19T02:47:58;94195.81;;;8.46;95.72
37972;BME280;23794;48.234;8.344;2023-11-19T02:50:28;94200.47;;;8.46;95.60
37972;BME280;23794;48.234;8.344;2023-11-19T02:52:56;94200.47;;;8.49;95.61
37972;BME280;23794;48.234;8.344;2023-11-19T02:55:24;94204.00;;;8.50;95.55
37972;BME280;23794;48.234;8.344;2023-11-19T02:57:51;94192.69;;;8.51;95.52
37972;BME280;23794;48.234;8.344;2023-11-19T03:00:21;94182.16;;;8.50;95.51
37972;BME280;23794;48.234;8.344;2023-11-19T03:02:51;94185.25;;;8.48;95.55
37972;BME280;23794;48.234;8.344;2023-11-19T03:05:37;94184.91;;;8.50;95.51
37972;BME280;23794;48.234;8.344;2023-11-19T03:08:04;94189.19;;;8.51;95.52
37972;BME280;23794;48.234;8.344;2023-11-19T03:10:30;94191.13;;;8.50;95.30
37972;BME280;23794;48.234;8.344;2023-11-19T03:12:57;94184.91;;;8.50;95.76
37972;BME280;23794;48.234;8.344;2023-11-19T03:15:26;94183.34;;;8.52;95.33
37972;BME280;23794;48.234;8.344;2023-11-19T03:17:52;94180.59;;;8.52;95.04
37972;BME280;23794;48.234;8.344;2023-11-19T03:20:19;94166.16;;;8.52;95.32
37972;BME280;23794;48.234;8.344;2023-11-19T03:22:48;94171.25;;;8.50;95.24
37972;BME280;23794;48.234;8.344;2023-11-19T03:25:15;94173.97;;;8.50;95.43
37972;BME280;23794;48.234;8.344;2023-11-19T03:27:41;94184.50;;;8.51;95.62
37972;BME280;23794;48.234;8.344;2023-11-19T03:30:09;94183.75;;;8.55;95.55
37972;BME280;23794;48.234;8.344;2023-11-19T03:32:36;94196.19;;;8.52;95.16
37972;BME280;23794;48.234;8.344;2023-11-19T03:35:03;94183.34;;;8.52;95.55
37972;BME280;23794;48.234;8.344;2023-11-19T03:37:35;94193.47;;;8.56;95.47
37972;BME280;23794;48.234;8.344;2023-11-19T03:40:03;94193.09;;;8.54;95.43
37972;BME280;23794;48.234;8.344;2023-11-19T03:42:31;94194.66;;;8.55;95.30
37972;BME280;23794;48.234;8.344;2023-11-19T03:44:58;94184.50;;;8.55;95.47
37972;BME280;23794;48.234;8.344;2023-11-19T03:47:25;94182.94;;;8.54;95.48
37972;BME280;23794;48.234;8.344;2023-11-19T03:49:52;94186.47;;;8.55;95.37
37972;BME280;23794;48.234;8.344;2023-11-19T03:52:19;94188.41;;;8.58;95.43
37972;BME280;23794;48.234;8.344;2023-11-19T03:54:47;94191.53;;;8.60;95.47
37972;BME280;23794;48.234;8.344;2023-11-19T03:57:13;94181.78;;;8.59;95.45
37972;BME280;23794;48.234;8.344;2023-11-19T03:59:42;94190.78;;;8.63;95.41
37972;BME280;23794;48.234;8.344;2023-11-19T04:02:08;94207.50;;;8.58;95.48
37972;BME280;23794;48.234;8.344;2023-11-19T04:04:35;94194.66;;;8.62;95.58
37972;BME280;23794;48.234;8.344;2023-11-19T04:07:02;94184.13;;;8.67;95.24
37972;BME280;23794;48.234;8.344;2023-11-19T04:09:29;94181.78;;;8.70;95.06
37972;BME280;23794;48.234;8.344;2023-11-19T04:11:57;94186.06;;;8.71;94.85
37972;BME280;23794;48.234;8.344;2023-11-19T04:14:24;94180.63;;;8.67;94.63
37972;BME280;23794;48.234;8.344;2023-11-19T04:16:51;94186.84;;;8.64;94.93
37972;BME280;23794;48.234;8.344;2023-11-19T04:19:19;94197.00;;;8.60;95.14
37972;BME280;23794;48.234;8.344;2023-11-19T04:21:46;94204.41;;;8.63;95.02
37972;BME280;23794;48.234;8.344;2023-11-19T04:24:13;94197.41;;;8.69;94.84
37972;BME280;23794;48.234;8.344;2023-11-19T04:26:45;94192.31;;;8.67;95.12
37972;BME280;23794;48.234;8.344;2023-11-19T04:29:12;94191.16;;;8.68;94.90
37972;BME280;23794;48.234;8.344;2023-11-19T04:31:41;94202.06;;;8.72;94.45
37972;BME280;23794;48.234;8.344;2023-11-19T04:34:08;94191.94;;;8.76;94.26
37972;BME280;23794;48.234;8.344;2023-11-19T04:36:35;94183.75;;;8.73;94.98
37972;BME280;23794;48.234;8.344;2023-11-19T04:39:04;94173.19;;;8.75;94.94
37972;BME280;23794;48.234;8.344;2023-11-19T04:41:49;94173.19;;;8.71;94.74
37972;BME280;23794;48.234;8.344;2023-11-19T04:44:17;94182.19;;;8.75;94.79
37972;BME280;23794;48.234;8.344;2023-11-19T04:46:44;94184.13;;;8.75;94.88
37972;BME280;23794;48.234;8.344;2023-11-19T04:49:12;94193.50;;;8.74;94.99
37972;BME280;23794;48.234;8.344;2023-11-19T04:51:43;94181.38;;;8.71;94.76
37972;BME280;23794;48.234;8.344;2023-11-19T04:54:10;94184.50;;;8.73;94.90
37972;BME280;23794;48.234;8.344;2023-11-19T04:56:37;94184.13;;;8.75;94.82
37972;BME280;23794;48.234;8.344;2023-11-19T04:59:04;94192.72;;;8.77;95.24
37972;BME280;23794;48.234;8.344;2023-11-19T05:01:32;94192.31;;;8.75;95.15
37972;BME280;23794;48.234;8.344;2023-11-19T05:04:00;94191.16;;;8.79;94.81
37972;BME280;23794;48.234;8.344;2023-11-19T05:06:30;94188.03;;;8.81;94.82
37972;BME280;23794;48.234;8.344;2023-11-19T05:08:59;94188.41;;;8.79;94.82
37972;BME280;23794;48.234;8.344;2023-11-19T05:11:34;94193.09;;;8.79;94.88
37972;BME280;23794;48.234;8.344;2023-11-19T05:14:05;94189.22;;;8.80;94.86
37972;BME280;23794;48.234;8.344;2023-11-19T05:16:32;94186.84;;;8.75;94.99
37972;BME280;23794;48.234;8.344;2023-11-19T05:18:59;94195.03;;;8.71;95.27
37972;BME280;23794;48.234;8.344;2023-11-19T05:21:26;94185.31;;;8.74;95.11
37972;BME280;23794;48.234;8.344;2023-11-19T05:23:53;94188.41;;;8.79;94.74
37972;BME280;23794;48.234;8.344;2023-11-19T05:26:22;94186.09;;;8.85;94.67
37972;BME280;23794;48.234;8.344;2023-11-19T05:28:50;94176.31;;;8.84;94.56
37972;BME280;23794;48.234;8.344;2023-11-19T05:31:17;94177.88;;;8.78;94.51
37972;BME280;23794;48.234;8.344;2023-11-19T05:33:44;94180.22;;;8.79;94.71
37972;BME280;23794;48.234;8.344;2023-11-19T05:36:12;94179.84;;;8.81;94.43
37972;BME280;23794;48.234;8.344;2023-11-19T05:38:39;94184.91;;;8.82;94.94
37972;BME280;23794;48.234;8.344;2023-11-19T05:41:06;94167.72;;;8.82;94.87
37972;BME280;23794;48.234;8.344;2023-11-19T05:43:33;94176.31;;;8.80;94.74
37972;BME280;23794;48.234;8.344;2023-11-19T05:46:00;94163.47;;;8.88;94.58
37972;BME280;23794;48.234;8.344;2023-11-19T05:48:28;94159.56;;;8.86;94.68
37972;BME280;23794;48.234;8.344;2023-11-19T05:50:55;94165.78;;;8.82;95.11
37972;BME280;23794;48.234;8.344;2023-11-19T05:53:22;94186.88;;;8.86;94.59
37972;BME280;23794;48.234;8.344;2023-11-19T05:55:49;94171.66;;;8.88;94.44
37972;BME280;23794;48.234;8.344;2023-11-19T05:58:25;94171.66;;;8.85;94.48
37972;BME280;23794;48.234;8.344;2023-11-19T06:00:52;94165.41;;;8.77;94.57
37972;BME280;23794;48.234;8.344;2023-11-19T06:03:19;94176.31;;;8.80;95.42
37972;BME280;23794;48.234;8.344;2023-11-19T06:05:49;94182.19;;;8.90;94.82
37972;BME280;23794;48.234;8.344;2023-11-19T06:08:16;94179.06;;;8.91;94.91
37972;BME280;23794;48.234;8.344;2023-11-19T06:10:44;94182.59;;;8.88;94.51
37972;BME280;23794;48.234;8.344;2023-11-19T06:13:13;94177.88;;;8.89;94.72
37972;BME280;23794;48.234;8.344;2023-11-19T06:15:42;94169.28;;;8.97;94.33
37972;BME280;23794;48.234;8.344;2023-11-19T06:18:10;94164.63;;;8.94;94.58
37972;BME280;23794;48.234;8.344;2023-11-19T06:20:40;94166.19;;;8.99;94.31
37972;BME280;23794;48.234;8.344;2023-11-19T06:23:09;94167.34;;;8.91;94.58
37972;BME280;23794;48.234;8.344;2023-11-19T06:25:36;94165.78;;;8.97;94.59
37972;BME280;23794;48.234;8.344;2023-11-19T06:28:03;94170.47;;;8.96;94.66
37972;BME280;23794;48.234;8.344;2023-11-19T06:30:30;94175.16;;;8.92;94.62
37972;BME280;23794;48.234;8.344;2023-11-19T06:32:59;94174.75;;;8.94;95.00
37972;BME280;23794;48.234;8.344;2023-11-19T06:35:26;94173.59;;;8.91;95.31
37972;BME280;23794;48.234;8.344;2023-11-19T06:37:55;94171.66;;;8.92;94.98
37972;BME280;23794;48.234;8.344;2023-11-19T06:40:22;94170.84;;;8.95;95.12
37972;BME280;23794;48.234;8.344;2023-11-19T06:42:49;94169.28;;;8.97;95.20
37972;BME280;23794;48.234;8.344;2023-11-19T06:45:19;94160.72;;;8.99;94.58
37972;BME280;23794;48.234;8.344;2023-11-19T06:47:45;94178.28;;;9.02;94.55
37972;BME280;23794;48.234;8.344;2023-11-19T06:50:12;94181.00;;;9.05;94.73
37972;BME280;23794;48.234;8.344;2023-11-19T06:52:39;94182.56;;;9.03;94.44
37972;BME280;23794;48.234;8.344;2023-11-19T06:55:07;94185.31;;;8.99;94.66
37972;BME280;23794;48.234;8.344;2023-11-19T06:57:35;94188.41;;;9.01;94.76
37972;BME280;23794;48.234;8.344;2023-11-19T07:00:02;94189.19;;;9.05;94.71
37972;BME280;23794;48.234;8.344;2023-11-19T07:02:29;94181.00;;;9.05;94.59
37972;BME280;23794;48.234;8.344;2023-11-19T07:04:57;94186.88;;;9.04;94.83
37972;BME280;23794;48.234;8.344;2023-11-19T07:07:24;94193.50;;;9.06;94.59
37972;BME280;23794;48.234;8.344;2023-11-19T07:09:51;94197.00;;;9.07;94.53
37972;BME280;23794;48.234;8.344;2023-11-19T07:12:18;94210.66;;;9.10;94.40
37972;BME280;23794;48.234;8.344;2023-11-19T07:14:44;94204.03;;;9.11;94.36
37972;BME280;23794;48.234;8.344;2023-11-19T07:17:11;94199.72;;;9.18;94.24
37972;BME280;23794;48.234;8.344;2023-11-19T07:19:38;94209.09;;;9.13;94.91
37972;BME280;23794;48.234;8.344;2023-11-19T07:22:06;94203.63;;;9.17;94.59
37972;BME280;23794;48.234;8.344;2023-11-19T07:24:33;94203.63;;;9.24;94.22
37972;BME280;23794;48.234;8.344;2023-11-19T07:27:00;94210.66;;;9.25;94.48
37972;BME280;23794;48.234;8.344;2023-11-19T07:29:29;94221.22;;;9.23;94.21
37972;BME280;23794;48.234;8.344;2023-11-19T07:31:58;94217.31;;;9.35;94.08
37972;BME280;23794;48.234;8.344;2023-11-19T07:34:24;94220.03;;;9.35;93.70
37972;BME280;23794;48.234;8.344;2023-11-19T07:36:52;94227.47;;;9.38;93.60
37972;BME280;23794;48.234;8.344;2023-11-19T07:39:19;94221.59;;;9.43;93.38
37972;BME280;23794;48.234;8.344;2023-11-19T07:41:50;94232.16;;;9.48;93.95
37972;BME280;23794;48.234;8.344;2023-11-19T07:44:16;94235.63;;;9.56;94.10
37972;BME280;23794;48.234;8.344;2023-11-19T07:46:43;94234.47;;;9.57;93.70
37972;BME280;23794;48.234;8.344;2023-11-19T07:49:15;94238.34;;;9.67;92.93
37972;BME280;23794;48.234;8.344;2023-11-19T07:51:41;94238.75;;;9.65;92.56
37972;BME280;23794;48.234;8.344;2023-11-19T07:54:08;94236.78;;;9.69;92.92
37972;BME280;23794;48.234;8.344;2023-11-19T07:56:35;94245.75;;;9.73;92.74
37972;BME280;23794;48.234;8.344;2023-11-19T07:59:05;94235.19;;;9.86;92.49
37972;BME280;23794;48.234;8.344;2023-11-19T08:01:33;94240.25;;;9.88;92.47
37972;BME280;23794;48.234;8.344;2023-11-19T08:04:00;94237.88;;;9.97;92.36
37972;BME280;23794;48.234;8.344;2023-11-19T08:06:28;94232.38;;;10.04;91.77
37972;BME280;23794;48.234;8.344;2023-11-19T08:08:55;94233.56;;;10.03;91.48
37972;BME280;23794;48.234;8.344;2023-11-19T08:11:23;94232.00;;;10.02;91.39
37972;BME280;23794;48.234;8.344;2023-11-19T08:13:49;94230.03;;;10.10;91.29
37972;BME280;23794;48.234;8.344;2023-11-19T08:16:16;94241.72;;;10.14;92.00
37972;BME280;23794;48.234;8.344;2023-11-19T08:18:43;94230.38;;;10.16;91.43
37972;BME280;23794;48.234;8.344;2023-11-19T08:21:11;94237.00;;;10.18;89.89
37972;BME280;23794;48.234;8.344;2023-11-19T08:23:38;94234.28;;;10.15;90.80
37972;BME280;23794;48.234;8.344;2023-11-19T08:26:05;94245.66;;;10.09;91.00
37972;BME280;23794;48.234;8.344;2023-11-19T08:28:33;94244.88;;;10.13;91.26
37972;BME280;23794;48.234;8.344;2023-11-19T08:31:01;94248.78;;;10.08;91.06
37972;BME280;23794;48.234;8.344;2023-11-19T08:33:31;94238.25;;;10.10;90.10
37972;BME280;23794;48.234;8.344;2023-11-19T08:35:57;94257.03;;;10.04;90.54
37972;BME280;23794;48.234;8.344;2023-11-19T08:38:26;94249.59;;;10.01;90.57
37972;BME280;23794;48.234;8.344;2023-11-19T08:40:55;94252.72;;;10.00;90.47
37972;BME280;23794;48.234;8.344;2023-11-19T08:43:27;94246.44;;;10.03;90.59
37972;BME280;23794;48.234;8.344;2023-11-19T08:45:54;94242.94;;;10.02;90.28
37972;BME280;23794;48.234;8.344;2023-11-19T08:48:24;94243.72;;;9.99;90.06
37972;BME280;23794;48.234;8.344;2023-11-19T08:51:02;94250.38;;;10.02;90.08
37972;BME280;23794;48.234;8.344;2023-11-19T08:53:28;94252.28;;;10.08;90.59
37972;BME280;23794;48.234;8.344;2023-11-19T08:55:56;94251.09;;;10.17;90.33
37972;BME280;23794;48.234;8.344;2023-11-19T08:58:22;94253.84;;;10.17;89.84
37972;BME280;23794;48.234;8.344;2023-11-19T09:00:49;94247.59;;;10.13;89.17
37972;BME280;23794;48.234;8.344;2023-11-19T09:03:16;94249.50;;;10.26;89.36
37972;BME280;23794;48.234;8.344;2023-11-19T09:05:43;94254.56;;;10.32;88.41
37972;BME280;23794;48.234;8.344;2023-11-19T09:08:10;94247.91;;;10.33;88.65
37972;BME280;23794;48.234;8.344;2023-11-19T09:10:38;94241.66;;;10.32;89.70
37972;BME280;23794;48.234;8.344;2023-11-19T09:13:06;94249.88;;;10.29;88.91
37972;BME280;23794;48.234;8.344;2023-11-19T09:15:35;94245.16;;;10.29;88.44
37972;BME280;23794;48.234;8.344;2023-11-19T09:18:02;94257.69;;;10.26;88.74
37972;BME280;23794;48.234;8.344;2023-11-19T09:20:30;94248.28;;;10.35;88.57
37972;BME280;23794;48.234;8.344;2023-11-19T09:23:05;94261.94;;;10.42;87.76
37972;BME280;23794;48.234;8.344;2023-11-19T09:25:32;94259.16;;;10.49;87.73
37972;BME280;23794;48.234;8.344;2023-11-19T09:28:12;94263.06;;;10.59;87.13
37972;BME280;23794;48.234;8.344;2023-11-19T09:30:43;94244.59;;;10.67;88.07
37972;BME280;23794;48.234;8.344;2023-11-19T09:33:11;94250.06;;;10.70;87.05
37972;BME280;23794;48.234;8.344;2023-11-19T09:35:46;94260.28;;;10.66;86.99
37972;BME280;23794;48.234;8.344;2023-11-19T09:38:13;94270.44;;;10.62;86.75
37972;BME280;23794;48.234;8.344;2023-11-19T09:40:39;94264.56;;;10.64;86.90
37972;BME280;23794;48.234;8.344;2023-11-19T09:43:07;94262.22;;;10.66;87.82
37972;BME280;23794;48.234;8.344;2023-11-19T09:45:54;94261.81;;;10.64;85.50
37972;BME280;23794;48.234;8.344;2023-11-19T09:48:21;94254.78;;;10.70;85.44
37972;BME280;23794;48.234;8.344;2023-11-19T09:50:51;94250.03;;;10.74;85.69
37972;BME280;23794;48.234;8.344;2023-11-19T09:53:19;94256.25;;;10.82;87.22
37972;BME280;23794;48.234;8.344;2023-11-19T09:55:47;94255.78;;;10.98;85.90
37972;BME280;23794;48.234;8.344;2023-11-19T09:58:17;94245.13;;;11.11;84.24
37972;BME280;23794;48.234;8.344;2023-11-19T10:00:48;94253.97;;;11.29;84.17
37972;BME280;23794;48.234;8.344;2023-11-19T10:03:42;94252.16;;;11.61;83.70
37972;BME280;23794;48.234;8.344;2023-11-19T10:06:12;94258.75;;;11.67;82.98
37972;BME280;23794;48.234;8.344;2023-11-19T10:08:41;94254.00;;;11.71;82.51
37972;BME280;23794;48.234;8.344;2023-11-19T10:11:08;94256.84;;;11.60;82.00
37972;BME280;23794;48.234;8.344;2023-11-19T10:13:37;94256.16;;;11.52;83.31
37972;BME280;23794;48.234;8.344;2023-11-19T10:16:12;94250.59;;;11.60;82.73
37972;BME280;23794;48.234;8.344;2023-11-19T10:18:48;94267.47;;;11.96;82.83
37972;BME280;23794;48.234;8.344;2023-11-19T10:21:23;94249.66;;;12.12;82.02
37972;BME280;23794;48.234;8.344;2023-11-19T10:23:56;94254.88;;;12.03;81.40
37972;BME280;23794;48.234;8.344;2023-11-19T10:26:26;94271.28;;;11.68;82.81
37972;BME280;23794;48.234;8.344;2023-11-19T10:28:56;94252.88;;;11.65;83.42
37972;BME280;23794;48.234;8.344;2023-11-19T10:31:24;94249.69;;;11.70;82.88
37972;BME280;23794;48.234;8.344;2023-11-19T10:33:53;94255.22;;;12.05;83.43
37972;BME280;23794;48.234;8.344;2023-11-19T10:36:21;94253.78;;;12.27;81.34
37972;BME280;23794;48.234;8.344;2023-11-19T10:39:04;94255.38;;;12.59;80.42
37972;BME280;23794;48.234;8.344;2023-11-19T10:41:31;94264.38;;;12.60;79.72
37972;BME280;23794;48.234;8.344;2023-11-19T10:43:59;94256.44;;;12.97;79.93
37972;BME280;23794;48.234;8.344;2023-11-19T10:49:06;94242.31;;;12.94;79.05
37972;BME280;23794;48.234;8.344;2023-11-19T10:51:33;94244.28;;;12.67;79.17
37972;BME280;23794;48.234;8.344;2023-11-19T10:54:05;94245.34;;;12.45;80.12
37972;BME280;23794;48.234;8.344;2023-11-19T10:56:33;94241.25;;;12.26;80.61
37972;BME280;23794;48.234;8.344;2023-11-19T10:59:01;94257.38;;;12.24;80.63
37972;BME280;23794;48.234;8.344;2023-11-19T11:01:50;94259.09;;;12.07;80.72
37972;BME280;23794;48.234;8.344;2023-11-19T11:04:23;94256.13;;;11.94;81.27
37972;BME280;23794;48.234;8.344;2023-11-19T11:06:54;94248.38;;;11.86;82.10
37972;BME280;23794;48.234;8.344;2023-11-19T11:09:34;94241.22;;;11.57;82.29
37972;BME280;23794;48.234;8.344;2023-11-19T11:12:03;94245.38;;;11.31;83.07
37972;BME280;23794;48.234;8.344;2023-11-19T11:14:34;94238.25;;;11.37;82.93
37972;BME280;23794;48.234;8.344;2023-11-19T11:17:03;94242.56;;;11.80;82.69
37972;BME280;23794;48.234;8.344;2023-11-19T11:19:30;94232.53;;;12.00;81.52
37972;BME280;23794;48.234;8.344;2023-11-19T11:21:58;94233.00;;;12.26;80.13
37972;BME280;23794;48.234;8.344;2023-11-19T11:30:42;94210.88;;;12.41;78.45
37972;BME280;23794;48.234;8.344;2023-11-19T11:36:41;94217.72;;;12.56;77.25
37972;BME280;23794;48.234;8.344;2023-11-19T11:39:12;94216.81;;;12.67;77.41
37972;BME280;23794;48.234;8.344;2023-11-19T11:41:42;94205.50;;;12.88;77.09
37972;BME280;23794;48.234;8.344;2023-11-19T11:44:09;94204.16;;;13.00;76.21
37972;BME280;23794;48.234;8.344;2023-11-19T11:49:04;94188.50;;;13.21;75.29
37972;BME280;23794;48.234;8.344;2023-11-19T11:54:11;94198.25;;;13.25;74.43
37972;BME280;23794;48.234;8.344;2023-11-19T11:57:11;94194.31;;;13.26;74.78
37972;BME280;23794;48.234;8.344;2023-11-19T12:02:13;94201.53;;;13.40;72.66
37972;BME280;23794;48.234;8.344;2023-11-19T12:04:40;94206.19;;;13.43;72.67
37972;BME280;23794;48.234;8.344;2023-11-19T12:07:37;94195.13;;;13.47;73.26
37972;BME280;23794;48.234;8.344;2023-11-19T12:10:07;94196.91;;;13.57;72.84
37972;BME280;23794;48.234;8.344;2023-11-19T12:12:35;94201.50;;;13.68;72.12
37972;BME280;23794;48.234;8.344;2023-11-19T12:15:09;94191.41;;;14.01;72.17
37972;BME280;23794;48.234;8.344;2023-11-19T12:17:49;94196.63;;;13.52;70.53
37972;BME280;23794;48.234;8.344;2023-11-19T12:20:18;94181.75;;;13.93;71.46
37972;BME280;23794;48.234;8.344;2023-11-19T12:23:04;94192.19;;;13.58;72.32
37972;BME280;23794;48.234;8.344;2023-11-19T12:25:34;94188.84;;;13.47;71.68
37972;BME280;23794;48.234;8.344;2023-11-19T12:28:01;94196.69;;;13.24;72.51
37972;BME280;23794;48.234;8.344;2023-11-19T12:30:31;94212.50;;;12.93;72.80
37972;BME280;23794;48.234;8.344;2023-11-19T12:32:58;94189.22;;;12.46;73.75
37972;BME280;23794;48.234;8.344;2023-11-19T12:35:29;94194.66;;;12.19;75.24
37972;BME280;23794;48.234;8.344;2023-11-19T12:37:56;94188.59;;;12.00;74.74
37972;BME280;23794;48.234;8.344;2023-11-19T12:40:24;94193.84;;;11.88;75.70
37972;BME280;23794;48.234;8.344;2023-11-19T12:42:55;94187.25;;;11.81;76.19
37972;BME280;23794;48.234;8.344;2023-11-19T12:45:23;94193.59;;;11.75;77.85
37972;BME280;23794;48.234;8.344;2023-11-19T12:48:08;94202.28;;;11.70;77.07
37972;BME280;23794;48.234;8.344;2023-11-19T12:50:54;94197.34;;;11.54;77.20
37972;BME280;23794;48.234;8.344;2023-11-19T12:53:25;94186.50;;;11.39;76.88
37972;BME280;23794;48.234;8.344;2023-11-19T12:55:54;94194.38;;;11.37;77.93
37972;BME280;23794;48.234;8.344;2023-11-19T12:58:32;94185.75;;;11.77;77.83
37972;BME280;23794;48.234;8.344;2023-11-19T13:01:04;94169.25;;;12.11;76.96
37972;BME280;23794;48.234;8.344;2023-11-19T13:03:36;94174.78;;;12.42;76.05
37972;BME280;23794;48.234;8.344;2023-11-19T13:06:09;94177.09;;;12.71;75.71
37972;BME280;23794;48.234;8.344;2023-11-19T13:08:52;94168.31;;;12.80;74.67
37972;BME280;23794;48.234;8.344;2023-11-19T13:11:35;94163.09;;;12.89;74.08
37972;BME280;23794;48.234;8.344;2023-11-19T13:14:04;94162.53;;;12.98;73.96
37972;BME280;23794;48.234;8.344;2023-11-19T13:16:32;94163.72;;;12.73;73.87
37972;BME280;23794;48.234;8.344;2023-11-19T13:18:59;94168.03;;;12.74;73.81
37972;BME280;23794;48.234;8.344;2023-11-19T13:21:30;94154.59;;;12.80;74.05
37972;BME280;23794;48.234;8.344;2023-11-19T13:23:57;94161.09;;;12.66;72.95
37972;BME280;23794;48.234;8.344;2023-11-19T13:26:29;94155.16;;;12.40;74.03
37972;BME280;23794;48.234;8.344;2023-11-19T13:28:56;94147.34;;;12.39;73.38
37972;BME280;23794;48.234;8.344;2023-11-19T13:31:23;94132.78;;;12.42;73.04
37972;BME280;23794;48.234;8.344;2023-11-19T13:33:50;94144.19;;;12.40;73.62
37972;BME280;23794;48.234;8.344;2023-11-19T13:36:17;94128.28;;;12.55;74.52
37972;BME280;23794;48.234;8.344;2023-11-19T13:38:44;94136.31;;;12.70;76.12